createdAt,value
2017-12-23T00:10:38.055Z,102953.75
2017-12-23T00:13:09.423Z,102949.85
2017-12-23T00:15:37.711Z,102944.10
2017-12-23T00:18:08.732Z,102944.98
2017-12-23T00:20:37.016Z,102941.73
2017-12-23T00:23:09.053Z,102935.16
2017-12-23T00:25:37.393Z,102947.20
2017-12-23T00:28:09.345Z,102955.27
2017-12-23T00:30:37.649Z,102951.74
2017-12-23T00:33:09.510Z,102959.67
2017-12-23T00:35:37.826Z,102950.22
2017-12-23T00:38:10.161Z,102947.88
2017-12-23T00:40:38.507Z,102950.23
2017-12-23T00:43:11.850Z,102944.02
2017-12-23T00:45:40.158Z,102931.10
2017-12-23T00:48:08.460Z,102932.70
2017-12-23T00:50:36.769Z,102921.79
2017-12-23T00:53:08.273Z,102926.52
2017-12-23T00:55:36.586Z,102924.95
2017-12-23T00:58:08.905Z,102923.65
2017-12-23T01:00:37.207Z,102924.16
2017-12-23T01:03:08.779Z,102925.59
2017-12-23T01:05:37.064Z,102922.92
2017-12-23T01:08:11.133Z,102920.33
2017-12-23T01:10:39.428Z,102919.07
2017-12-23T01:13:09.060Z,102920.52
2017-12-23T01:15:37.518Z,102919.77
2017-12-23T01:18:09.069Z,102911.27
2017-12-23T01:20:37.351Z,102915.92
2017-12-23T01:23:08.977Z,102912.35
2017-12-23T01:25:37.598Z,102918.70
2017-12-23T01:28:08.934Z,102917.77
2017-12-23T01:30:37.690Z,102925.52
2017-12-23T01:33:08.648Z,102918.15
2017-12-23T01:35:37.127Z,102920.46
2017-12-23T01:38:08.916Z,102913.93
2017-12-23T01:40:37.292Z,102908.38
2017-12-23T01:43:09.428Z,102900.87
2017-12-23T01:45:37.733Z,102900.41
2017-12-23T01:48:08.653Z,102894.13
2017-12-23T01:50:37.192Z,102894.65
2017-12-23T01:53:09.577Z,102896.29
2017-12-23T01:55:37.836Z,102893.33
2017-12-23T01:58:09.144Z,102889.34
2017-12-23T02:00:37.637Z,102885.16
2017-12-23T02:03:10.392Z,102890.25
2017-12-23T02:05:38.699Z,102887.33
2017-12-23T02:08:08.605Z,102881.97
2017-12-23T02:10:36.898Z,102889.59
2017-12-23T02:13:08.600Z,102884.91
2017-12-23T02:15:36.912Z,102876.14
2017-12-23T02:18:08.412Z,102879.24
2017-12-23T02:20:36.695Z,102872.94
2017-12-23T02:23:08.348Z,102877.14
2017-12-23T02:25:36.735Z,102872.05
2017-12-23T02:28:08.189Z,102876.61
2017-12-23T02:30:36.495Z,102874.82
2017-12-23T02:33:07.864Z,102875.89
2017-12-23T02:35:36.168Z,102876.66
2017-12-23T02:38:10.840Z,102869.05
2017-12-23T02:40:39.153Z,102865.26
2017-12-23T02:43:09.547Z,102861.69
2017-12-23T02:45:37.850Z,102857.35
2017-12-23T02:48:09.403Z,102857.67
2017-12-23T02:50:37.849Z,102858.55
2017-12-23T02:53:10.516Z,102852.45
2017-12-23T02:55:38.756Z,102850.77
2017-12-23T02:58:08.904Z,102850.66
2017-12-23T03:00:37.192Z,102852.11
2017-12-23T03:03:09.642Z,102845.61
2017-12-23T03:05:38.242Z,102836.06
2017-12-23T03:08:10.333Z,102833.91
2017-12-23T03:10:38.639Z,102831.78
2017-12-23T03:13:08.843Z,102836.37
2017-12-23T03:15:37.204Z,102838.50
2017-12-23T03:18:12.360Z,102833.16
2017-12-23T03:20:40.694Z,102837.05
2017-12-23T03:23:09.005Z,102838.80
2017-12-23T03:25:37.241Z,102830.17
2017-12-23T03:28:12.316Z,102832.27
2017-12-23T03:30:40.619Z,102836.56
2017-12-23T03:33:09.632Z,102834.16
2017-12-23T03:35:38.025Z,102824.54
2017-12-23T03:38:10.205Z,102820.30
2017-12-23T03:40:38.505Z,102816.27
2017-12-23T03:43:09.946Z,102816.69
2017-12-23T03:45:38.224Z,102807.80
2017-12-23T03:48:09.660Z,102801.59
2017-12-23T03:50:38.337Z,102801.97
2017-12-23T03:53:10.270Z,102800.38
2017-12-23T03:55:39.303Z,102811.77
2017-12-23T03:58:08.950Z,102806.64
2017-12-23T04:00:37.235Z,102811.45
2017-12-23T04:03:08.859Z,102811.16
2017-12-23T04:05:37.206Z,102810.77
2017-12-23T04:08:09.376Z,102814.42
2017-12-23T04:10:37.658Z,102817.77
2017-12-23T04:13:09.320Z,102821.66
2017-12-23T04:15:37.591Z,102821.73
2017-12-23T04:18:09.313Z,102824.83
2017-12-23T04:20:38.344Z,102827.73
2017-12-23T04:23:09.793Z,102840.27
2017-12-23T04:25:38.084Z,102835.33
2017-12-23T04:28:08.570Z,102839.38
2017-12-23T04:30:37.565Z,102841.16
2017-12-23T04:33:08.791Z,102833.83
2017-12-23T04:35:37.094Z,102839.06
2017-12-23T04:38:08.768Z,102837.73
2017-12-23T04:40:37.298Z,102838.87
2017-12-23T04:43:08.544Z,102839.35
2017-12-23T04:45:36.808Z,102833.74
2017-12-23T04:48:08.156Z,102838.75
2017-12-23T04:50:36.875Z,102827.98
2017-12-23T04:53:10.815Z,102832.48
2017-12-23T04:55:39.141Z,102838.09
2017-12-23T04:58:08.790Z,102840.23
2017-12-23T05:00:37.065Z,102843.12
2017-12-23T05:03:08.909Z,102847.04
2017-12-23T05:05:37.221Z,102846.47
2017-12-23T05:08:09.464Z,102840.51
2017-12-23T05:10:37.792Z,102853.03
2017-12-23T05:13:09.685Z,102849.69
2017-12-23T05:15:38.278Z,102849.56
2017-12-23T05:18:11.529Z,102850.30
2017-12-23T05:20:39.768Z,102854.17
2017-12-23T05:23:08.136Z,102847.31
2017-12-23T05:25:36.412Z,102839.56
2017-12-23T05:28:08.509Z,102842.56
2017-12-23T05:30:36.807Z,102841.76
2017-12-23T05:33:08.893Z,102840.64
2017-12-23T05:35:37.183Z,102840.95
2017-12-23T05:38:08.924Z,102833.37
2017-12-23T05:40:37.201Z,102836.66
2017-12-23T05:43:08.177Z,102827.56
2017-12-23T05:45:36.485Z,102829.30
2017-12-23T05:48:11.757Z,102825.55
2017-12-23T05:50:40.146Z,102826.61
2017-12-23T05:53:08.417Z,102821.06
2017-12-23T05:55:37.616Z,102823.97
2017-12-23T05:58:09.145Z,102822.53
2017-12-23T06:00:37.452Z,102821.38
2017-12-23T06:03:10.449Z,102815.80
2017-12-23T06:05:38.757Z,102814.35
2017-12-23T06:08:08.652Z,102811.33
2017-12-23T06:10:36.940Z,102803.83
2017-12-23T06:13:08.096Z,102803.03
2017-12-23T06:15:36.601Z,102803.15
2017-12-23T06:18:11.652Z,102802.34
2017-12-23T06:20:40.026Z,102806.92
2017-12-23T06:23:08.473Z,102801.08
2017-12-23T06:25:36.778Z,102801.28
2017-12-23T06:28:08.881Z,102798.83
2017-12-23T06:30:37.656Z,102802.44
2017-12-23T06:33:09.369Z,102795.38
2017-12-23T06:35:37.626Z,102795.94
2017-12-23T06:38:09.649Z,102793.80
2017-12-23T06:40:38.197Z,102791.72
2017-12-23T06:43:08.282Z,102794.95
2017-12-23T06:45:36.582Z,102790.59
2017-12-23T06:48:08.403Z,102787.44
2017-12-23T06:50:36.695Z,102795.16
2017-12-23T06:53:11.828Z,102789.91
2017-12-23T06:55:40.133Z,102792.73
2017-12-23T06:58:08.413Z,102793.63
2017-12-23T07:00:36.712Z,102794.27
2017-12-23T07:03:08.797Z,102790.62
2017-12-23T07:05:37.107Z,102796.19
2017-12-23T07:08:08.932Z,102793.13
2017-12-23T07:10:37.233Z,102801.25
2017-12-23T07:13:08.808Z,102803.19
2017-12-23T07:15:37.106Z,102803.95
2017-12-23T07:18:08.610Z,102798.60
2017-12-23T07:20:36.935Z,102807.05
2017-12-23T07:23:08.433Z,102803.62
2017-12-23T07:25:36.755Z,102802.08
2017-12-23T07:28:08.473Z,102797.97
2017-12-23T07:30:36.792Z,102796.76
2017-12-23T07:33:08.692Z,102795.67
2017-12-23T07:35:37.010Z,102787.72
2017-12-23T07:38:08.427Z,102790.05
2017-12-23T07:40:36.702Z,102780.98
2017-12-23T07:43:08.196Z,102789.83
2017-12-23T07:45:36.461Z,102785.98
2017-12-23T07:48:08.047Z,102791.83
2017-12-23T07:50:36.347Z,102790.08
2017-12-23T07:53:11.486Z,102788.42
2017-12-23T07:55:39.808Z,102790.75
2017-12-23T07:58:08.215Z,102794.12
2017-12-23T08:00:37.504Z,102802.39
2017-12-23T08:03:08.170Z,102800.67
2017-12-23T08:05:36.805Z,102799.85
2017-12-23T08:08:08.612Z,102803.07
2017-12-23T08:10:37.074Z,102805.98
2017-12-23T08:13:09.069Z,102797.72
2017-12-23T08:15:37.400Z,102791.89
2017-12-23T08:18:08.920Z,102794.92
2017-12-23T08:20:37.221Z,102793.08
2017-12-23T08:23:08.153Z,102793.78
2017-12-23T08:25:36.467Z,102791.38
2017-12-23T08:28:08.054Z,102798.84
2017-12-23T08:30:36.426Z,102795.24
2017-12-23T08:33:08.161Z,102796.23
2017-12-23T08:35:36.505Z,102795.99
2017-12-23T08:38:11.754Z,102797.94
2017-12-23T08:40:40.158Z,102801.40
2017-12-23T08:43:08.487Z,102798.69
2017-12-23T08:45:36.785Z,102795.53
2017-12-23T08:48:08.812Z,102799.31
2017-12-23T08:50:37.088Z,102797.14
2017-12-23T08:53:08.914Z,102803.19
2017-12-23T08:55:37.801Z,102797.95
2017-12-23T08:58:09.324Z,102791.53
2017-12-23T09:00:37.613Z,102797.95
2017-12-23T09:03:08.933Z,102804.00
2017-12-23T09:05:37.228Z,102806.41
2017-12-23T09:08:09.309Z,102810.25
2017-12-23T09:10:37.622Z,102816.03
2017-12-23T09:13:08.220Z,102828.95
2017-12-23T09:15:36.884Z,102825.61
2017-12-23T09:18:11.627Z,102824.17
2017-12-23T09:20:40.132Z,102831.08
2017-12-23T09:23:09.045Z,102825.61
2017-12-23T09:25:37.337Z,102821.64
2017-12-23T09:28:09.342Z,102649.95
2017-12-23T09:30:37.686Z,102820.76
2017-12-23T09:33:09.169Z,102810.94
2017-12-23T09:35:37.445Z,102811.47
2017-12-23T09:38:09.387Z,102805.31
2017-12-23T09:40:37.732Z,102807.20
2017-12-23T09:43:09.657Z,102806.57
2017-12-23T09:45:38.190Z,102807.84
2017-12-23T09:48:08.333Z,102810.23
2017-12-23T09:50:36.684Z,102800.07
2017-12-23T09:53:08.553Z,102803.61
2017-12-23T09:55:36.877Z,102794.73
2017-12-23T09:58:08.530Z,102799.63
2017-12-23T10:00:36.869Z,102797.62
2017-12-23T10:03:08.360Z,102797.81
2017-12-23T10:05:37.400Z,102792.81
2017-12-23T10:08:09.102Z,102792.91
2017-12-23T10:10:37.415Z,102789.73
2017-12-23T10:13:09.256Z,102783.45
2017-12-23T10:15:37.533Z,102785.82
2017-12-23T10:18:09.620Z,102788.36
2017-12-23T10:20:38.101Z,102783.01
2017-12-23T10:23:09.787Z,102778.46
2017-12-23T10:25:42.398Z,102783.50
2017-12-23T10:28:10.737Z,102780.98
2017-12-23T10:30:39.013Z,102775.55
2017-12-23T10:33:08.430Z,102767.56
2017-12-23T10:35:37.194Z,102759.55
2017-12-23T10:38:09.165Z,102765.71
2017-12-23T10:40:37.482Z,102767.30
2017-12-23T10:43:08.264Z,102759.47
2017-12-23T10:45:36.629Z,102765.34
2017-12-23T10:48:08.210Z,102760.29
2017-12-23T10:50:36.613Z,102765.53
2017-12-23T10:53:08.104Z,102761.41
2017-12-23T10:55:36.900Z,102762.55
2017-12-23T10:58:08.971Z,102757.16
2017-12-23T11:00:37.505Z,102757.52
2017-12-23T11:03:09.022Z,102753.28
2017-12-23T11:05:37.323Z,102752.95
2017-12-23T11:08:09.282Z,102752.02
2017-12-23T11:10:37.578Z,102746.23
2017-12-23T11:13:08.283Z,102743.15
2017-12-23T11:15:36.763Z,102740.83
2017-12-23T11:18:11.789Z,102731.46
2017-12-23T11:20:40.092Z,102728.73
2017-12-23T11:23:08.484Z,102729.59
2017-12-23T11:25:36.778Z,102722.77
2017-12-23T11:28:12.589Z,102717.27
2017-12-23T11:30:40.877Z,102708.48
2017-12-23T11:33:09.206Z,102709.58
2017-12-23T11:35:41.568Z,102704.20
2017-12-23T11:38:09.889Z,102706.11
2017-12-23T11:40:38.197Z,102701.86
2017-12-23T11:43:09.733Z,102693.66
2017-12-23T11:45:38.198Z,102693.42
2017-12-23T11:48:10.119Z,102687.03
2017-12-23T11:50:42.765Z,102690.50
2017-12-23T11:53:11.216Z,102680.41
2017-12-23T11:55:39.528Z,102675.31
2017-12-23T11:58:08.531Z,102675.11
2017-12-23T12:00:36.958Z,102674.09
2017-12-23T12:03:08.644Z,102666.16
2017-12-23T12:05:37.013Z,102660.29
2017-12-23T12:08:08.657Z,102660.91
2017-12-23T12:10:37.031Z,102663.79
2017-12-23T12:13:08.450Z,102659.30
2017-12-23T12:15:36.762Z,102661.59
2017-12-23T12:18:11.792Z,102656.79
2017-12-23T12:20:40.098Z,102656.30
2017-12-23T12:23:08.382Z,102659.12
2017-12-23T12:25:36.688Z,102651.36
2017-12-23T12:28:11.781Z,102648.11
2017-12-23T12:30:40.077Z,102644.81
2017-12-23T12:33:08.371Z,102643.43
2017-12-23T12:35:37.901Z,102638.55
2017-12-23T12:38:09.993Z,102640.09
2017-12-23T12:40:38.486Z,102643.41
2017-12-23T12:43:08.468Z,102640.44
2017-12-23T12:45:36.807Z,102634.30
2017-12-23T12:48:11.940Z,102641.01
2017-12-23T12:50:40.700Z,102638.97
2017-12-23T12:53:09.081Z,102639.73
2017-12-23T12:55:37.374Z,102640.03
2017-12-23T12:58:09.221Z,102640.73
2017-12-23T13:00:37.564Z,102636.60
2017-12-23T13:03:09.205Z,102635.38
2017-12-23T13:05:37.506Z,102623.05
2017-12-23T13:08:09.212Z,102626.41
2017-12-23T13:10:37.924Z,102631.66
2017-12-23T13:13:10.025Z,102633.70
2017-12-23T13:15:38.479Z,102619.87
2017-12-23T13:18:08.285Z,102620.33
2017-12-23T13:20:36.639Z,102617.63
2017-12-23T13:23:11.884Z,102622.05
2017-12-23T13:25:40.184Z,102618.31
2017-12-23T13:28:08.597Z,102620.73
2017-12-23T13:30:36.916Z,102625.05
2017-12-23T13:33:08.359Z,102628.91
2017-12-23T13:35:36.662Z,102625.83
2017-12-23T13:38:08.311Z,102629.20
2017-12-23T13:40:37.117Z,102621.86
2017-12-23T13:43:09.240Z,102621.43
2017-12-23T13:45:37.532Z,102615.31
2017-12-23T13:48:09.354Z,102622.07
2017-12-23T13:50:37.644Z,102616.76
2017-12-23T13:53:09.245Z,102619.66
2017-12-23T13:55:37.496Z,102617.14
2017-12-23T13:58:09.055Z,102616.81
2017-12-23T14:00:37.326Z,102614.94
2017-12-23T14:03:09.011Z,102605.34
2017-12-23T14:05:38.162Z,102605.27
2017-12-23T14:08:08.522Z,102602.38
2017-12-23T14:10:36.829Z,102598.31
2017-12-23T14:13:08.858Z,102601.11
2017-12-23T14:15:37.149Z,102595.49
2017-12-23T14:18:09.170Z,102594.56
2017-12-23T14:20:38.610Z,102601.25
2017-12-23T14:23:08.124Z,102591.92
2017-12-23T14:25:36.442Z,102593.58
2017-12-23T14:28:07.467Z,102590.62
2017-12-23T14:30:35.982Z,102590.50
2017-12-23T14:33:08.217Z,102588.66
2017-12-23T14:35:36.859Z,102584.39
2017-12-23T14:38:08.519Z,102593.91
2017-12-23T14:40:37.088Z,102601.84
2017-12-23T14:43:08.884Z,102604.84
2017-12-23T14:45:37.250Z,102606.80
2017-12-23T14:48:08.753Z,102604.97
2017-12-23T14:50:37.072Z,102605.82
2017-12-23T14:53:08.441Z,102606.42
2017-12-23T14:55:36.781Z,102607.93
2017-12-23T14:58:07.581Z,102615.17
2017-12-23T15:00:35.875Z,102613.91
2017-12-23T15:03:10.906Z,102617.66
2017-12-23T15:05:39.193Z,102620.98
2017-12-23T15:08:07.541Z,102610.00
2017-12-23T15:10:35.809Z,102604.59
2017-12-23T15:13:07.428Z,102601.51
2017-12-23T15:15:35.853Z,102599.86
2017-12-23T15:18:07.928Z,102598.81
2017-12-23T15:20:36.240Z,102591.50
2017-12-23T15:23:07.640Z,102586.59
2017-12-23T15:25:35.923Z,102588.52
2017-12-23T15:28:07.545Z,102590.14
2017-12-23T15:30:36.078Z,102589.41
2017-12-23T15:33:07.498Z,102596.65
2017-12-23T15:35:35.784Z,102590.49
2017-12-23T15:38:11.042Z,102590.91
2017-12-23T15:40:39.379Z,102577.20
2017-12-23T15:43:07.663Z,102590.08
2017-12-23T15:45:35.973Z,102588.33
2017-12-23T15:48:11.089Z,102584.30
2017-12-23T15:50:39.380Z,102586.08
2017-12-23T15:53:07.713Z,102586.22
2017-12-23T15:55:36.001Z,102586.41
2017-12-23T15:58:07.353Z,102578.03
2017-12-23T16:00:35.652Z,102582.00
2017-12-23T16:03:07.096Z,102576.22
2017-12-23T16:05:35.363Z,102573.66
2017-12-23T16:08:08.627Z,102574.62
2017-12-23T16:10:36.903Z,102572.38
2017-12-23T16:13:09.307Z,102570.33
2017-12-23T16:15:37.828Z,102562.71
2017-12-23T16:18:09.176Z,102565.22
2017-12-23T16:20:37.458Z,102557.66
2017-12-23T16:23:08.696Z,102555.66
2017-12-23T16:25:38.011Z,102554.78
2017-12-23T16:28:08.004Z,102554.30
2017-12-23T16:30:36.293Z,102545.11
2017-12-23T16:33:08.076Z,102554.38
2017-12-23T16:35:36.589Z,102544.78
2017-12-23T16:38:07.889Z,102541.00
2017-12-23T16:40:36.181Z,102540.89
2017-12-23T16:43:08.105Z,102544.59
2017-12-23T16:45:36.401Z,102546.22
2017-12-23T16:48:07.524Z,102544.78
2017-12-23T16:50:35.850Z,102546.70
2017-12-23T16:53:10.764Z,102549.16
2017-12-23T16:55:39.059Z,102546.25
2017-12-23T16:58:08.262Z,102548.19
2017-12-23T17:00:36.547Z,102547.67
2017-12-23T17:03:07.504Z,102549.45
2017-12-23T17:05:36.662Z,102544.38
2017-12-23T17:08:08.695Z,102541.73
2017-12-23T17:10:37.222Z,102538.62
2017-12-23T17:13:08.825Z,102540.86
2017-12-23T17:15:37.108Z,102537.44
2017-12-23T17:18:07.820Z,102542.91
2017-12-23T17:20:36.086Z,102544.59
2017-12-23T17:23:07.572Z,102548.94
2017-12-23T17:25:36.344Z,102542.99
2017-12-23T17:28:16.645Z,102542.23
2017-12-23T17:30:45.192Z,102550.38
2017-12-23T17:33:13.493Z,102540.84
2017-12-23T17:35:41.843Z,102550.25
2017-12-23T17:38:10.507Z,102550.41
2017-12-23T17:40:38.769Z,102553.78
2017-12-23T17:43:07.880Z,102555.86
2017-12-23T17:45:36.192Z,102557.11
2017-12-23T17:48:07.568Z,102554.56
2017-12-23T17:50:35.870Z,102549.62
2017-12-23T17:53:07.808Z,102549.41
2017-12-23T17:55:36.098Z,102544.31
2017-12-23T17:58:10.119Z,102544.44
2017-12-23T18:00:38.745Z,102545.37
2017-12-23T18:03:07.737Z,102544.22
2017-12-23T18:05:36.034Z,102542.14
2017-12-23T18:08:07.424Z,102538.92
2017-12-23T18:10:35.699Z,102540.48
2017-12-23T18:13:07.897Z,102539.76
2017-12-23T18:15:36.169Z,102532.73
2017-12-23T18:18:07.680Z,102534.27
2017-12-23T18:20:36.000Z,102529.84
2017-12-23T18:23:07.610Z,102533.34
2017-12-23T18:25:35.937Z,102532.52
2017-12-23T18:28:07.588Z,102528.53
2017-12-23T18:30:35.867Z,102534.34
2017-12-23T18:33:10.851Z,102532.31
2017-12-23T18:35:39.162Z,102536.72
2017-12-23T18:38:07.567Z,102529.88
2017-12-23T18:40:35.858Z,102528.80
2017-12-23T18:43:07.362Z,102533.74
2017-12-23T18:45:36.275Z,102527.97
2017-12-23T18:48:08.158Z,102529.38
2017-12-23T18:50:36.450Z,102527.23
2017-12-23T18:53:10.829Z,102525.87
2017-12-23T18:55:39.106Z,102533.97
2017-12-23T18:58:08.317Z,102536.02
2017-12-23T19:00:36.630Z,102532.16
2017-12-23T19:03:08.707Z,102536.90
2017-12-23T19:05:37.091Z,102526.46
2017-12-23T19:08:08.402Z,102535.23
2017-12-23T19:10:37.019Z,102531.70
2017-12-23T19:13:08.427Z,102532.59
2017-12-23T19:15:36.717Z,102532.08
2017-12-23T19:18:08.741Z,102527.80
2017-12-23T19:20:37.045Z,102518.97
2017-12-23T19:23:08.282Z,102513.31
2017-12-23T19:25:36.573Z,102518.66
2017-12-23T19:28:08.639Z,102515.92
2017-12-23T19:30:37.393Z,102517.21
2017-12-23T19:33:09.017Z,102510.75
2017-12-23T19:35:38.138Z,102518.05
2017-12-23T19:38:07.541Z,102518.08
2017-12-23T19:40:36.270Z,102518.86
2017-12-23T19:43:07.589Z,102521.27
2017-12-23T19:45:35.902Z,102517.22
2017-12-23T19:48:11.108Z,102519.30
2017-12-23T19:50:39.340Z,102516.95
2017-12-23T19:53:07.630Z,102520.92
2017-12-23T19:55:42.034Z,102514.08
2017-12-23T19:58:10.498Z,102515.76
2017-12-23T20:00:38.777Z,102509.78
2017-12-23T20:03:08.564Z,102510.89
2017-12-23T20:05:37.023Z,102502.06
2017-12-23T20:08:09.282Z,102507.71
2017-12-23T20:10:37.578Z,102512.22
2017-12-23T20:13:07.588Z,102506.48
2017-12-23T20:15:35.925Z,102500.98
2017-12-23T20:18:07.425Z,102494.14
2017-12-23T20:20:35.729Z,102492.55
2017-12-23T20:23:07.931Z,102491.52
2017-12-23T20:25:36.214Z,102495.03
2017-12-23T20:28:07.954Z,102490.84
2017-12-23T20:30:36.773Z,102492.81
2017-12-23T20:33:08.659Z,102486.52
2017-12-23T20:35:37.335Z,102483.44
2017-12-23T20:38:09.025Z,102476.88
2017-12-23T20:40:38.193Z,102471.66
2017-12-23T20:43:07.613Z,102472.12
2017-12-23T20:45:35.945Z,102468.09
2017-12-23T20:48:07.649Z,102469.61
2017-12-23T20:50:35.974Z,102472.67
2017-12-23T20:53:11.094Z,102475.72
2017-12-23T20:55:39.377Z,102473.23
2017-12-23T20:58:07.676Z,102475.31
2017-12-23T21:00:36.260Z,102478.83
2017-12-23T21:03:08.225Z,102474.58
2017-12-23T21:05:36.784Z,102471.50
2017-12-23T21:08:09.637Z,102469.40
2017-12-23T21:10:37.979Z,102470.83
2017-12-23T21:13:08.429Z,102476.66
2017-12-23T21:15:36.720Z,102473.31
2017-12-23T21:18:09.278Z,102466.42
2017-12-23T21:20:37.564Z,102468.85
2017-12-23T21:23:07.614Z,102464.56
2017-12-23T21:25:35.948Z,102467.09
2017-12-23T21:28:11.124Z,102462.83
2017-12-23T21:30:39.394Z,102456.00
2017-12-23T21:33:07.718Z,102460.48
2017-12-23T21:35:35.982Z,102456.05
2017-12-23T21:38:07.373Z,102456.33
2017-12-23T21:40:35.665Z,102450.68
2017-12-23T21:43:06.968Z,102439.20
2017-12-23T21:45:35.269Z,102442.30
2017-12-23T21:48:10.046Z,102444.55
2017-12-23T21:50:38.340Z,102435.78
2017-12-23T21:53:08.437Z,102429.68
2017-12-23T21:55:36.937Z,102430.17
2017-12-23T21:58:08.636Z,102429.68
2017-12-23T22:00:36.937Z,102440.24
2017-12-23T22:03:08.261Z,102448.33
2017-12-23T22:05:36.706Z,102443.41
2017-12-23T22:08:08.305Z,102444.44
2017-12-23T22:10:36.888Z,102445.09
2017-12-23T22:13:08.141Z,102442.00
2017-12-23T22:15:36.437Z,102440.56
2017-12-23T22:18:07.890Z,102441.89
2017-12-23T22:20:36.557Z,102441.95
2017-12-23T22:23:07.821Z,102438.92
2017-12-23T22:25:36.095Z,102437.92
2017-12-23T22:28:08.276Z,102434.79
2017-12-23T22:30:36.583Z,102436.19
2017-12-23T22:33:08.772Z,102439.08
2017-12-23T22:35:37.066Z,102437.67
2017-12-23T22:38:08.810Z,102435.55
2017-12-23T22:40:37.077Z,102432.95
2017-12-23T22:43:09.373Z,102429.59
2017-12-23T22:45:37.646Z,102429.20
2017-12-23T22:48:08.921Z,102421.58
2017-12-23T22:50:37.172Z,102429.87
2017-12-23T22:53:07.778Z,102425.33
2017-12-23T22:55:36.039Z,102425.41
2017-12-23T22:58:07.589Z,102422.64
2017-12-23T23:00:35.849Z,102422.84
2017-12-23T23:03:07.340Z,102413.34
2017-12-23T23:05:35.620Z,102410.59
2017-12-23T23:08:10.799Z,102412.42
2017-12-23T23:10:39.092Z,102416.67
2017-12-23T23:13:07.887Z,102402.00
2017-12-23T23:15:36.180Z,102405.73
2017-12-23T23:18:07.594Z,102410.19
2017-12-23T23:20:35.884Z,102409.19
2017-12-23T23:23:07.553Z,102405.83
2017-12-23T23:25:35.834Z,102397.78
2017-12-23T23:28:08.935Z,102402.52
2017-12-23T23:30:37.428Z,102398.01
2017-12-23T23:33:09.426Z,102401.95
2017-12-23T23:35:37.740Z,102399.22
2017-12-23T23:38:07.611Z,102399.78
2017-12-23T23:40:36.364Z,102402.38
2017-12-23T23:43:07.742Z,102405.11
2017-12-23T23:45:36.327Z,102403.59
2017-12-23T23:48:07.704Z,102398.38
2017-12-23T23:50:35.975Z,102400.48
2017-12-23T23:53:11.950Z,102397.46
2017-12-23T23:55:40.285Z,102393.11
2017-12-23T23:58:08.540Z,102394.73
